sensor_id;sensor_type;location;lat;lon;timestamp;temperature;humidity
19829;DHT22;10075;50.924;4.396;2024-01-25T00:00:18;10.30;99.90
19829;DHT22;10075;50.924;4.396;2024-01-25T00:02:45;10.30;99.90
19829;DHT22;10075;50.924;4.396;2024-01-25T00:05:12;10.30;99.90
19829;DHT22;10075;50.924;4.396;2024-01-25T00:07:46;10.20;99.90
19829;DHT22;10075;50.924;4.396;2024-01-25T00:10:13;10.20;99.90
19829;DHT22;10075;50.924;4.396;2024-01-25T00:12:41;10.10;99.90
19829;DHT22;10075;50.924;4.396;2024-01-25T00:15:09;10.00;99.90
19829;DHT22;10075;50.924;4.396;2024-01-25T00:17:36;10.00;99.90
19829;DHT22;10075;50.924;4.396;2024-01-25T00:20:04;10.00;99.90
19829;DHT22;10075;50.924;4.396;2024-01-25T00:22:31;10.00;99.90
19829;DHT22;10075;50.924;4.396;2024-01-25T00:24:59;9.90;99.90
19829;DHT22;10075;50.924;4.396;2024-01-25T00:27:26;9.80;99.90
19829;DHT22;10075;50.924;4.396;2024-01-25T00:29:53;9.80;99.90
19829;DHT22;10075;50.924;4.396;2024-01-25T00:32:20;9.80;99.90
19829;DHT22;10075;50.924;4.396;2024-01-25T00:34:47;9.80;99.90
19829;DHT22;10075;50.924;4.396;2024-01-25T00:37:15;9.70;99.90
19829;DHT22;10075;50.924;4.396;2024-01-25T00:39:42;9.60;99.90
19829;DHT22;10075;50.924;4.396;2024-01-25T00:42:13;9.50;99.90
19829;DHT22;10075;50.924;4.396;2024-01-25T00:44:41;9.50;99.90
19829;DHT22;10075;50.924;4.396;2024-01-25T00:47:09;9.40;99.90
19829;DHT22;10075;50.924;4.396;2024-01-25T00:49:36;9.40;99.90
19829;DHT22;10075;50.924;4.396;2024-01-25T00:52:04;9.70;99.90
19829;DHT22;10075;50.924;4.396;2024-01-25T00:54:31;9.90;99.90
19829;DHT22;10075;50.924;4.396;2024-01-25T00:56:59;9.90;99.90
19829;DHT22;10075;50.924;4.396;2024-01-25T00:59:28;9.70;99.90
19829;DHT22;10075;50.924;4.396;2024-01-25T01:01:55;9.60;99.90
19829;DHT22;10075;50.924;4.396;2024-01-25T01:04:25;9.40;99.90
19829;DHT22;10075;50.924;4.396;2024-01-25T01:06:52;9.30;99.90
19829;DHT22;10075;50.924;4.396;2024-01-25T01:09:19;9.30;99.90
19829;DHT22;10075;50.924;4.396;2024-01-25T01:11:47;9.50;99.90
19829;DHT22;10075;50.924;4.396;2024-01-25T01:14:15;9.70;99.90
19829;DHT22;10075;50.924;4.396;2024-01-25T01:16:44;9.70;99.90
19829;DHT22;10075;50.924;4.396;2024-01-25T01:19:11;9.70;99.90
19829;DHT22;10075;50.924;4.396;2024-01-25T01:21:38;9.60;99.90
19829;DHT22;10075;50.924;4.396;2024-01-25T01:24:09;9.50;99.90
19829;DHT22;10075;50.924;4.396;2024-01-25T01:26:36;9.60;99.90
19829;DHT22;10075;50.924;4.396;2024-01-25T01:29:03;9.50;99.90
19829;DHT22;10075;50.924;4.396;2024-01-25T01:31:31;9.50;99.90
19829;DHT22;10075;50.924;4.396;2024-01-25T01:33:59;9.30;99.90
19829;DHT22;10075;50.924;4.396;2024-01-25T01:36:26;9.30;99.90
19829;DHT22;10075;50.924;4.396;2024-01-25T01:38:53;9.40;99.90
19829;DHT22;10075;50.924;4.396;2024-01-25T01:41:20;9.50;99.90
19829;DHT22;10075;50.924;4.396;2024-01-25T01:43:47;9.60;99.90
19829;DHT22;10075;50.924;4.396;2024-01-25T01:46:32;9.50;99.90
19829;DHT22;10075;50.924;4.396;2024-01-25T01:49:00;9.40;99.90
19829;DHT22;10075;50.924;4.396;2024-01-25T01:51:28;9.50;99.90
19829;DHT22;10075;50.924;4.396;2024-01-25T01:53:56;9.40;99.90
19829;DHT22;10075;50.924;4.396;2024-01-25T01:56:24;9.40;99.90
19829;DHT22;10075;50.924;4.396;2024-01-25T01:58:53;9.40;99.90
19829;DHT22;10075;50.924;4.396;2024-01-25T02:01:21;9.40;99.90
19829;DHT22;10075;50.924;4.396;2024-01-25T02:03:48;9.40;99.90
19829;DHT22;10075;50.924;4.396;2024-01-25T02:06:16;9.30;99.90
19829;DHT22;10075;50.924;4.396;2024-01-25T02:08:43;9.20;99.90
19829;DHT22;10075;50.924;4.396;2024-01-25T02:11:12;9.10;99.90
19829;DHT22;10075;50.924;4.396;2024-01-25T02:13:39;9.10;99.90
19829;DHT22;10075;50.924;4.396;2024-01-25T02:16:07;9.10;99.90
19829;DHT22;10075;50.924;4.396;2024-01-25T02:18:34;9.20;99.90
19829;DHT22;10075;50.924;4.396;2024-01-25T02:21:02;9.10;99.90
19829;DHT22;10075;50.924;4.396;2024-01-25T02:23:30;9.00;99.90
19829;DHT22;10075;50.924;4.396;2024-01-25T02:25:57;9.10;99.90
19829;DHT22;10075;50.924;4.396;2024-01-25T02:28:24;9.10;99.90
19829;DHT22;10075;50.924;4.396;2024-01-25T02:30:51;9.10;99.90
19829;DHT22;10075;50.924;4.396;2024-01-25T02:33:18;9.00;99.90
19829;DHT22;10075;50.924;4.396;2024-01-25T02:35:44;8.90;99.90
19829;DHT22;10075;50.924;4.396;2024-01-25T02:38:11;8.90;99.90
19829;DHT22;10075;50.924;4.396;2024-01-25T02:40:40;8.80;99.90
19829;DHT22;10075;50.924;4.396;2024-01-25T02:43:07;8.80;99.90
19829;DHT22;10075;50.924;4.396;2024-01-25T02:45:34;8.80;99.90
19829;DHT22;10075;50.924;4.396;2024-01-25T02:48:01;8.80;99.90
19829;DHT22;10075;50.924;4.396;2024-01-25T02:50:29;8.70;99.90
19829;DHT22;10075;50.924;4.396;2024-01-25T02:52:56;8.70;99.90
19829;DHT22;10075;50.924;4.396;2024-01-25T02:55:23;8.70;99.90
19829;DHT22;10075;50.924;4.396;2024-01-25T02:57:51;8.80;99.90
19829;DHT22;10075;50.924;4.396;2024-01-25T03:00:18;8.80;99.90
19829;DHT22;10075;50.924;4.396;2024-01-25T03:02:45;8.60;99.90
19829;DHT22;10075;50.924;4.396;2024-01-25T03:05:12;8.50;99.90
19829;DHT22;10075;50.924;4.396;2024-01-25T03:07:39;8.50;99.90
19829;DHT22;10075;50.924;4.396;2024-01-25T03:10:06;8.60;99.90
19829;DHT22;10075;50.924;4.396;2024-01-25T03:12:33;8.70;99.90
19829;DHT22;10075;50.924;4.396;2024-01-25T03:15:02;8.60;99.90
19829;DHT22;10075;50.924;4.396;2024-01-25T03:17:29;8.50;99.90
19829;DHT22;10075;50.924;4.396;2024-01-25T03:19:56;8.50;99.90
19829;DHT22;10075;50.924;4.396;2024-01-25T03:22:23;8.50;99.90
19829;DHT22;10075;50.924;4.396;2024-01-25T03:24:50;8.40;99.90
19829;DHT22;10075;50.924;4.396;2024-01-25T03:27:16;8.40;99.90
19829;DHT22;10075;50.924;4.396;2024-01-25T03:29:43;8.40;99.90
19829;DHT22;10075;50.924;4.396;2024-01-25T03:32:12;8.40;99.90
19829;DHT22;10075;50.924;4.396;2024-01-25T03:34:39;8.30;99.90
19829;DHT22;10075;50.924;4.396;2024-01-25T03:37:06;8.30;99.90
19829;DHT22;10075;50.924;4.396;2024-01-25T03:39:33;8.40;99.90
19829;DHT22;10075;50.924;4.396;2024-01-25T03:42:00;8.40;99.90
19829;DHT22;10075;50.924;4.396;2024-01-25T03:44:27;8.40;99.90
19829;DHT22;10075;50.924;4.396;2024-01-25T03:46:53;8.40;99.90
19829;DHT22;10075;50.924;4.396;2024-01-25T03:49:22;8.30;99.90
19829;DHT22;10075;50.924;4.396;2024-01-25T03:51:49;8.30;99.90
19829;DHT22;10075;50.924;4.396;2024-01-25T03:54:16;8.30;99.90
19829;DHT22;10075;50.924;4.396;2024-01-25T03:56:43;8.10;99.90
19829;DHT22;10075;50.924;4.396;2024-01-25T03:59:10;8.00;99.90
19829;DHT22;10075;50.924;4.396;2024-01-25T04:01:43;8.20;99.90
19829;DHT22;10075;50.924;4.396;2024-01-25T04:04:10;8.30;99.90
19829;DHT22;10075;50.924;4.396;2024-01-25T04:06:41;8.20;99.90
19829;DHT22;10075;50.924;4.396;2024-01-25T04:09:09;8.20;99.90
19829;DHT22;10075;50.924;4.396;2024-01-25T04:11:36;8.10;99.90
19829;DHT22;10075;50.924;4.396;2024-01-25T04:14:04;8.20;99.90
19829;DHT22;10075;50.924;4.396;2024-01-25T04:16:32;8.20;99.90
19829;DHT22;10075;50.924;4.396;2024-01-25T04:18:59;8.20;99.90
19829;DHT22;10075;50.924;4.396;2024-01-25T04:21:26;8.10;99.90
19829;DHT22;10075;50.924;4.396;2024-01-25T04:23:55;8.20;99.90
19829;DHT22;10075;50.924;4.396;2024-01-25T04:26:22;8.10;99.90
19829;DHT22;10075;50.924;4.396;2024-01-25T04:28:49;8.20;99.90
19829;DHT22;10075;50.924;4.396;2024-01-25T04:31:16;8.20;99.90
19829;DHT22;10075;50.924;4.396;2024-01-25T04:33:42;8.10;99.90
19829;DHT22;10075;50.924;4.396;2024-01-25T04:36:09;8.10;99.90
19829;DHT22;10075;50.924;4.396;2024-01-25T04:38:36;8.10;99.90
19829;DHT22;10075;50.924;4.396;2024-01-25T04:41:05;8.10;99.90
19829;DHT22;10075;50.924;4.396;2024-01-25T04:43:34;8.10;99.90
19829;DHT22;10075;50.924;4.396;2024-01-25T04:46:02;8.10;99.90
19829;DHT22;10075;50.924;4.396;2024-01-25T04:48:29;8.00;99.90
19829;DHT22;10075;50.924;4.396;2024-01-25T04:50:56;8.00;99.90
19829;DHT22;10075;50.924;4.396;2024-01-25T04:53:24;8.00;99.90
19829;DHT22;10075;50.924;4.396;2024-01-25T04:55:50;8.00;99.90
19829;DHT22;10075;50.924;4.396;2024-01-25T04:58:19;7.90;99.90
19829;DHT22;10075;50.924;4.396;2024-01-25T05:00:46;7.90;99.90
19829;DHT22;10075;50.924;4.396;2024-01-25T05:03:12;7.80;99.90
19829;DHT22;10075;50.924;4.396;2024-01-25T05:05:39;7.80;99.90
19829;DHT22;10075;50.924;4.396;2024-01-25T05:08:06;7.80;99.90
19829;DHT22;10075;50.924;4.396;2024-01-25T05:10:33;7.80;99.90
19829;DHT22;10075;50.924;4.396;2024-01-25T05:13:00;7.70;99.90
19829;DHT22;10075;50.924;4.396;2024-01-25T05:15:28;7.70;99.90
19829;DHT22;10075;50.924;4.396;2024-01-25T05:17:55;7.70;99.90
19829;DHT22;10075;50.924;4.396;2024-01-25T05:20:22;7.60;99.90
19829;DHT22;10075;50.924;4.396;2024-01-25T05:22:54;7.70;99.90
19829;DHT22;10075;50.924;4.396;2024-01-25T05:25:20;7.70;99.90
19829;DHT22;10075;50.924;4.396;2024-01-25T05:27:47;7.70;99.90
19829;DHT22;10075;50.924;4.396;2024-01-25T05:30:14;7.70;99.90
19829;DHT22;10075;50.924;4.396;2024-01-25T05:32:44;7.70;99.90
19829;DHT22;10075;50.924;4.396;2024-01-25T05:35:11;7.70;99.90
19829;DHT22;10075;50.924;4.396;2024-01-25T05:37:38;7.60;99.90
19829;DHT22;10075;50.924;4.396;2024-01-25T05:40:06;7.60;99.90
19829;DHT22;10075;50.924;4.396;2024-01-25T05:42:34;7.60;99.90
19829;DHT22;10075;50.924;4.396;2024-01-25T05:45:01;7.60;99.90
19829;DHT22;10075;50.924;4.396;2024-01-25T05:47:29;7.60;99.90
19829;DHT22;10075;50.924;4.396;2024-01-25T05:49:57;7.70;99.90
19829;DHT22;10075;50.924;4.396;2024-01-25T05:52:25;7.70;99.90
19829;DHT22;10075;50.924;4.396;2024-01-25T05:54:52;7.70;99.90
19829;DHT22;10075;50.924;4.396;2024-01-25T05:57:19;7.70;99.90
19829;DHT22;10075;50.924;4.396;2024-01-25T05:59:46;7.70;99.90
19829;DHT22;10075;50.924;4.396;2024-01-25T06:02:13;7.70;99.90
19829;DHT22;10075;50.924;4.396;2024-01-25T06:04:40;7.80;99.90
19829;DHT22;10075;50.924;4.396;2024-01-25T06:07:08;7.70;99.90
19829;DHT22;10075;50.924;4.396;2024-01-25T06:09:36;7.80;99.90
19829;DHT22;10075;50.924;4.396;2024-01-25T06:12:03;7.80;99.90
19829;DHT22;10075;50.924;4.396;2024-01-25T06:14:30;7.80;99.90
19829;DHT22;10075;50.924;4.396;2024-01-25T06:16:57;7.90;99.90
19829;DHT22;10075;50.924;4.396;2024-01-25T06:19:24;7.90;99.90
19829;DHT22;10075;50.924;4.396;2024-01-25T06:21:51;7.90;99.90
19829;DHT22;10075;50.924;4.396;2024-01-25T06:24:19;7.90;99.90
19829;DHT22;10075;50.924;4.396;2024-01-25T06:26:46;7.90;99.90
19829;DHT22;10075;50.924;4.396;2024-01-25T06:29:13;8.00;99.90
19829;DHT22;10075;50.924;4.396;2024-01-25T06:31:42;7.90;99.90
19829;DHT22;10075;50.924;4.396;2024-01-25T06:34:10;8.00;99.90
19829;DHT22;10075;50.924;4.396;2024-01-25T06:36:37;7.90;99.90
19829;DHT22;10075;50.924;4.396;2024-01-25T06:39:04;8.10;99.90
19829;DHT22;10075;50.924;4.396;2024-01-25T06:41:33;8.10;99.90
19829;DHT22;10075;50.924;4.396;2024-01-25T06:44:00;8.10;99.90
19829;DHT22;10075;50.924;4.396;2024-01-25T06:46:28;8.00;99.90
19829;DHT22;10075;50.924;4.396;2024-01-25T06:48:55;8.00;99.90
19829;DHT22;10075;50.924;4.396;2024-01-25T06:51:22;8.00;99.90
19829;DHT22;10075;50.924;4.396;2024-01-25T06:53:49;7.90;99.90
19829;DHT22;10075;50.924;4.396;2024-01-25T06:56:16;8.00;99.90
19829;DHT22;10075;50.924;4.396;2024-01-25T06:58:45;7.90;99.90
19829;DHT22;10075;50.924;4.396;2024-01-25T07:01:12;8.00;99.90
19829;DHT22;10075;50.924;4.396;2024-01-25T07:03:39;8.10;99.90
19829;DHT22;10075;50.924;4.396;2024-01-25T07:06:06;8.10;99.90
19829;DHT22;10075;50.924;4.396;2024-01-25T07:08:33;8.00;99.90
19829;DHT22;10075;50.924;4.396;2024-01-25T07:10:59;8.00;99.90
19829;DHT22;10075;50.924;4.396;2024-01-25T07:13:27;8.00;99.90
19829;DHT22;10075;50.924;4.396;2024-01-25T07:15:55;8.10;99.90
19829;DHT22;10075;50.924;4.396;2024-01-25T07:18:22;8.00;99.90
19829;DHT22;10075;50.924;4.396;2024-01-25T07:20:50;8.00;99.90
19829;DHT22;10075;50.924;4.396;2024-01-25T07:23:17;8.20;99.90
19829;DHT22;10075;50.924;4.396;2024-01-25T07:25:44;8.10;99.90
19829;DHT22;10075;50.924;4.396;2024-01-25T07:28:11;8.10;99.90
19829;DHT22;10075;50.924;4.396;2024-01-25T07:30:38;8.10;99.90
19829;DHT22;10075;50.924;4.396;2024-01-25T07:33:06;8.10;99.90
19829;DHT22;10075;50.924;4.396;2024-01-25T07:35:33;8.10;99.90
19829;DHT22;10075;50.924;4.396;2024-01-25T07:38:01;8.20;99.90
19829;DHT22;10075;50.924;4.396;2024-01-25T07:40:28;8.30;99.90
19829;DHT22;10075;50.924;4.396;2024-01-25T07:42:55;8.30;99.90
19829;DHT22;10075;50.924;4.396;2024-01-25T07:45:21;8.40;99.90
19829;DHT22;10075;50.924;4.396;2024-01-25T07:47:48;8.40;99.90
19829;DHT22;10075;50.924;4.396;2024-01-25T07:50:17;8.30;99.90
19829;DHT22;10075;50.924;4.396;2024-01-25T07:52:44;8.30;99.90
19829;DHT22;10075;50.924;4.396;2024-01-25T07:55:11;8.30;99.90
19829;DHT22;10075;50.924;4.396;2024-01-25T07:57:38;8.20;99.90
19829;DHT22;10075;50.924;4.396;2024-01-25T08:00:06;8.20;99.90
19829;DHT22;10075;50.924;4.396;2024-01-25T08:02:34;8.20;99.90
19829;DHT22;10075;50.924;4.396;2024-01-25T08:05:01;8.30;99.90
19829;DHT22;10075;50.924;4.396;2024-01-25T08:07:30;8.30;99.90
19829;DHT22;10075;50.924;4.396;2024-01-25T08:09:57;8.30;99.90
19829;DHT22;10075;50.924;4.396;2024-01-25T08:12:24;8.10;99.90
19829;DHT22;10075;50.924;4.396;2024-01-25T08:14:51;8.10;99.90
19829;DHT22;10075;50.924;4.396;2024-01-25T08:17:18;8.30;99.90
19829;DHT22;10075;50.924;4.396;2024-01-25T08:19:45;8.30;99.90
19829;DHT22;10075;50.924;4.396;2024-01-25T08:22:14;8.30;99.90
19829;DHT22;10075;50.924;4.396;2024-01-25T08:24:42;8.60;99.90
19829;DHT22;10075;50.924;4.396;2024-01-25T08:27:10;8.70;99.90
19829;DHT22;10075;50.924;4.396;2024-01-25T08:29:38;8.70;99.90
19829;DHT22;10075;50.924;4.396;2024-01-25T08:32:05;8.70;99.90
19829;DHT22;10075;50.924;4.396;2024-01-25T08:34:32;8.80;99.90
19829;DHT22;10075;50.924;4.396;2024-01-25T08:36:59;8.80;99.90
19829;DHT22;10075;50.924;4.396;2024-01-25T08:39:26;9.00;99.90
19829;DHT22;10075;50.924;4.396;2024-01-25T08:42:01;9.00;99.90
19829;DHT22;10075;50.924;4.396;2024-01-25T08:44:29;9.10;99.90
19829;DHT22;10075;50.924;4.396;2024-01-25T08:46:56;9.20;99.90
19829;DHT22;10075;50.924;4.396;2024-01-25T08:49:23;9.30;99.90
19829;DHT22;10075;50.924;4.396;2024-01-25T08:51:49;9.10;99.90
19829;DHT22;10075;50.924;4.396;2024-01-25T08:54:16;9.00;99.90
19829;DHT22;10075;50.924;4.396;2024-01-25T08:56:44;9.00;99.90
19829;DHT22;10075;50.924;4.396;2024-01-25T08:59:12;9.00;99.90
19829;DHT22;10075;50.924;4.396;2024-01-25T09:01:41;9.10;99.90
19829;DHT22;10075;50.924;4.396;2024-01-25T09:04:08;9.10;99.90
19829;DHT22;10075;50.924;4.396;2024-01-25T09:06:35;9.00;99.90
19829;DHT22;10075;50.924;4.396;2024-01-25T09:09:02;9.00;99.90
19829;DHT22;10075;50.924;4.396;2024-01-25T09:11:29;9.10;99.90
19829;DHT22;10075;50.924;4.396;2024-01-25T09:13:56;9.00;99.90
19829;DHT22;10075;50.924;4.396;2024-01-25T09:16:24;9.30;99.90
19829;DHT22;10075;50.924;4.396;2024-01-25T09:18:51;9.30;99.90
19829;DHT22;10075;50.924;4.396;2024-01-25T09:21:18;9.50;99.90
19829;DHT22;10075;50.924;4.396;2024-01-25T09:23:45;9.40;99.90
19829;DHT22;10075;50.924;4.396;2024-01-25T09:26:12;9.40;99.90
19829;DHT22;10075;50.924;4.396;2024-01-25T09:28:39;9.40;99.90
19829;DHT22;10075;50.924;4.396;2024-01-25T09:31:06;9.50;99.90
19829;DHT22;10075;50.924;4.396;2024-01-25T09:33:34;9.60;99.90
19829;DHT22;10075;50.924;4.396;2024-01-25T09:36:01;9.60;99.90
19829;DHT22;10075;50.924;4.396;2024-01-25T09:38:28;9.70;99.90
19829;DHT22;10075;50.924;4.396;2024-01-25T09:40:56;9.60;99.90
19829;DHT22;10075;50.924;4.396;2024-01-25T09:43:25;9.60;99.90
19829;DHT22;10075;50.924;4.396;2024-01-25T09:45:53;9.70;99.90
19829;DHT22;10075;50.924;4.396;2024-01-25T09:48:20;9.80;99.90
19829;DHT22;10075;50.924;4.396;2024-01-25T09:50:49;9.80;99.90
19829;DHT22;10075;50.924;4.396;2024-01-25T09:53:20;9.90;99.90
19829;DHT22;10075;50.924;4.396;2024-01-25T09:55:59;10.00;99.90
19829;DHT22;10075;50.924;4.396;2024-01-25T09:58:34;10.30;99.90
19829;DHT22;10075;50.924;4.396;2024-01-25T10:01:03;10.40;99.90
19829;DHT22;10075;50.924;4.396;2024-01-25T10:03:30;10.50;99.90
19829;DHT22;10075;50.924;4.396;2024-01-25T10:05:59;10.40;99.90
19829;DHT22;10075;50.924;4.396;2024-01-25T10:08:26;10.40;99.90
19829;DHT22;10075;50.924;4.396;2024-01-25T10:10:53;10.40;99.90
19829;DHT22;10075;50.924;4.396;2024-01-25T10:13:20;10.50;99.90
19829;DHT22;10075;50.924;4.396;2024-01-25T10:15:47;10.40;99.90
19829;DHT22;10075;50.924;4.396;2024-01-25T10:18:14;10.50;99.90
19829;DHT22;10075;50.924;4.396;2024-01-25T10:20:42;10.60;99.90
19829;DHT22;10075;50.924;4.396;2024-01-25T10:23:11;10.80;99.90
19829;DHT22;10075;50.924;4.396;2024-01-25T10:25:38;10.80;99.90
19829;DHT22;10075;50.924;4.396;2024-01-25T10:28:06;11.10;99.90
19829;DHT22;10075;50.924;4.396;2024-01-25T10:30:34;11.20;99.90
19829;DHT22;10075;50.924;4.396;2024-01-25T10:33:01;11.40;99.90
19829;DHT22;10075;50.924;4.396;2024-01-25T10:35:30;11.50;99.90
19829;DHT22;10075;50.924;4.396;2024-01-25T10:37:58;11.70;99.90
19829;DHT22;10075;50.924;4.396;2024-01-25T10:40:27;11.80;99.90
19829;DHT22;10075;50.924;4.396;2024-01-25T10:42:54;11.70;99.90
19829;DHT22;10075;50.924;4.396;2024-01-25T10:45:21;11.60;99.90
19829;DHT22;10075;50.924;4.396;2024-01-25T10:47:49;11.70;99.90
19829;DHT22;10075;50.924;4.396;2024-01-25T10:50:16;11.80;99.90
19829;DHT22;10075;50.924;4.396;2024-01-25T10:52:43;11.80;99.90
19829;DHT22;10075;50.924;4.396;2024-01-25T10:55:11;11.80;99.90
19829;DHT22;10075;50.924;4.396;2024-01-25T10:57:43;12.00;99.90
19829;DHT22;10075;50.924;4.396;2024-01-25T11:00:12;12.10;99.90
19829;DHT22;10075;50.924;4.396;2024-01-25T11:02:40;11.90;99.90
19829;DHT22;10075;50.924;4.396;2024-01-25T11:05:10;11.80;99.90
19829;DHT22;10075;50.924;4.396;2024-01-25T11:07:46;11.70;99.90
19829;DHT22;10075;50.924;4.396;2024-01-25T11:10:15;11.80;99.90
19829;DHT22;10075;50.924;4.396;2024-01-25T11:12:51;12.10;99.90
19829;DHT22;10075;50.924;4.396;2024-01-25T11:15:21;11.80;99.90
19829;DHT22;10075;50.924;4.396;2024-01-25T11:17:52;11.90;99.90
19829;DHT22;10075;50.924;4.396;2024-01-25T11:20:23;11.90;99.90
19829;DHT22;10075;50.924;4.396;2024-01-25T11:22:56;11.80;99.90
19829;DHT22;10075;50.924;4.396;2024-01-25T11:25:24;11.90;99.90
19829;DHT22;10075;50.924;4.396;2024-01-25T11:27:56;11.80;99.90
19829;DHT22;10075;50.924;4.396;2024-01-25T11:30:24;11.80;99.90
19829;DHT22;10075;50.924;4.396;2024-01-25T11:32:51;11.90;99.90
19829;DHT22;10075;50.924;4.396;2024-01-25T11:35:19;11.90;99.90
19829;DHT22;10075;50.924;4.396;2024-01-25T11:37:47;11.90;99.90
19829;DHT22;10075;50.924;4.396;2024-01-25T11:40:18;11.70;99.90
19829;DHT22;10075;50.924;4.396;2024-01-25T11:42:50;11.80;99.90
19829;DHT22;10075;50.924;4.396;2024-01-25T11:45:23;12.00;99.90
19829;DHT22;10075;50.924;4.396;2024-01-25T11:47:52;12.10;99.90
19829;DHT22;10075;50.924;4.396;2024-01-25T11:50:20;12.10;99.90
19829;DHT22;10075;50.924;4.396;2024-01-25T11:52:48;11.90;99.90
19829;DHT22;10075;50.924;4.396;2024-01-25T11:55:16;12.00;99.90
19829;DHT22;10075;50.924;4.396;2024-01-25T11:57:48;12.30;99.90
19829;DHT22;10075;50.924;4.396;2024-01-25T12:00:19;12.40;99.90
19829;DHT22;10075;50.924;4.396;2024-01-25T12:02:47;12.40;99.90
19829;DHT22;10075;50.924;4.396;2024-01-25T12:05:14;12.50;99.90
19829;DHT22;10075;50.924;4.396;2024-01-25T12:07:41;12.50;99.90
19829;DHT22;10075;50.924;4.396;2024-01-25T12:10:15;12.40;99.90
19829;DHT22;10075;50.924;4.396;2024-01-25T12:12:42;12.30;99.90
19829;DHT22;10075;50.924;4.396;2024-01-25T12:15:09;12.30;99.90
19829;DHT22;10075;50.924;4.396;2024-01-25T12:17:36;12.30;99.90
19829;DHT22;10075;50.924;4.396;2024-01-25T12:20:07;12.30;99.90
19829;DHT22;10075;50.924;4.396;2024-01-25T12:22:36;12.50;99.90
19829;DHT22;10075;50.924;4.396;2024-01-25T12:25:07;12.60;99.90
19829;DHT22;10075;50.924;4.396;2024-01-25T12:27:35;12.60;99.90
19829;DHT22;10075;50.924;4.396;2024-01-25T12:30:03;12.40;99.90
19829;DHT22;10075;50.924;4.396;2024-01-25T12:32:30;12.40;99.90
19829;DHT22;10075;50.924;4.396;2024-01-25T12:34:58;12.30;99.90
19829;DHT22;10075;50.924;4.396;2024-01-25T12:37:27;12.20;99.90
19829;DHT22;10075;50.924;4.396;2024-01-25T12:39:55;12.30;99.90
19829;DHT22;10075;50.924;4.396;2024-01-25T12:42:23;12.30;99.90
19829;DHT22;10075;50.924;4.396;2024-01-25T12:44:52;12.20;99.90
19829;DHT22;10075;50.924;4.396;2024-01-25T12:47:20;12.20;99.90
19829;DHT22;10075;50.924;4.396;2024-01-25T12:49:47;12.20;99.90
19829;DHT22;10075;50.924;4.396;2024-01-25T12:52:15;11.90;99.90
19829;DHT22;10075;50.924;4.396;2024-01-25T12:54:44;11.80;99.90
19829;DHT22;10075;50.924;4.396;2024-01-25T12:57:11;11.80;99.90
19829;DHT22;10075;50.924;4.396;2024-01-25T12:59:38;11.70;99.90
19829;DHT22;10075;50.924;4.396;2024-01-25T13:02:07;11.80;99.90
19829;DHT22;10075;50.924;4.396;2024-01-25T13:04:34;11.80;99.90
19829;DHT22;10075;50.924;4.396;2024-01-25T13:07:02;11.80;99.90
19829;DHT22;10075;50.924;4.396;2024-01-25T13:09:29;11.90;99.90
19829;DHT22;10075;50.924;4.396;2024-01-25T13:12:00;11.80;99.90
19829;DHT22;10075;50.924;4.396;2024-01-25T13:14:27;11.80;99.90
19829;DHT22;10075;50.924;4.396;2024-01-25T13:16:54;11.70;99.90
19829;DHT22;10075;50.924;4.396;2024-01-25T13:19:21;11.70;99.90
19829;DHT22;10075;50.924;4.396;2024-01-25T13:21:48;11.70;99.90
19829;DHT22;10075;50.924;4.396;2024-01-25T13:24:15;11.80;99.90
19829;DHT22;10075;50.924;4.396;2024-01-25T13:26:42;11.80;99.90
19829;DHT22;10075;50.924;4.396;2024-01-25T13:29:12;11.90;99.90
19829;DHT22;10075;50.924;4.396;2024-01-25T13:31:39;12.10;99.90
19829;DHT22;10075;50.924;4.396;2024-01-25T13:34:06;12.30;99.90
19829;DHT22;10075;50.924;4.396;2024-01-25T13:36:33;12.30;99.90
19829;DHT22;10075;50.924;4.396;2024-01-25T13:39:00;12.30;99.90
19829;DHT22;10075;50.924;4.396;2024-01-25T13:41:27;12.10;99.90
19829;DHT22;10075;50.924;4.396;2024-01-25T13:43:54;12.20;99.90
19829;DHT22;10075;50.924;4.396;2024-01-25T13:46:22;12.20;99.90
19829;DHT22;10075;50.924;4.396;2024-01-25T13:48:50;12.40;99.90
19829;DHT22;10075;50.924;4.396;2024-01-25T13:51:17;12.50;99.90
19829;DHT22;10075;50.924;4.396;2024-01-25T13:53:44;12.50;99.90
19829;DHT22;10075;50.924;4.396;2024-01-25T13:56:11;12.20;99.90
19829;DHT22;10075;50.924;4.396;2024-01-25T13:58:37;12.10;99.90
19829;DHT22;10075;50.924;4.396;2024-01-25T14:01:04;12.10;99.90
19829;DHT22;10075;50.924;4.396;2024-01-25T14:03:32;12.20;99.90
19829;DHT22;10075;50.924;4.396;2024-01-25T14:06:00;12.40;99.90
19829;DHT22;10075;50.924;4.396;2024-01-25T14:08:30;12.50;99.90
19829;DHT22;10075;50.924;4.396;2024-01-25T14:10:57;12.60;99.90
19829;DHT22;10075;50.924;4.396;2024-01-25T14:13:23;12.70;99.90
19829;DHT22;10075;50.924;4.396;2024-01-25T14:15:50;12.50;99.90
19829;DHT22;10075;50.924;4.396;2024-01-25T14:18:17;12.50;99.90
19829;DHT22;10075;50.924;4.396;2024-01-25T14:20:46;12.40;99.90
19829;DHT22;10075;50.924;4.396;2024-01-25T14:23:13;12.30;99.90
19829;DHT22;10075;50.924;4.396;2024-01-25T14:25:40;12.40;99.90
19829;DHT22;10075;50.924;4.396;2024-01-25T14:28:07;12.60;99.90
19829;DHT22;10075;50.924;4.396;2024-01-25T14:30:34;12.40;99.90
19829;DHT22;10075;50.924;4.396;2024-01-25T14:33:01;12.20;99.90
19829;DHT22;10075;50.924;4.396;2024-01-25T14:35:29;12.00;99.90
19829;DHT22;10075;50.924;4.396;2024-01-25T14:37:57;12.10;99.90
19829;DHT22;10075;50.924;4.396;2024-01-25T14:40:24;12.10;99.90
19829;DHT22;10075;50.924;4.396;2024-01-25T14:42:51;12.10;99.90
19829;DHT22;10075;50.924;4.396;2024-01-25T14:45:18;12.20;99.90
19829;DHT22;10075;50.924;4.396;2024-01-25T14:47:45;12.10;99.90
19829;DHT22;10075;50.924;4.396;2024-01-25T14:50:13;12.10;99.90
19829;DHT22;10075;50.924;4.396;2024-01-25T14:52:40;12.10;99.90
19829;DHT22;10075;50.924;4.396;2024-01-25T14:55:08;12.40;99.90
19829;DHT22;10075;50.924;4.396;2024-01-25T14:57:35;12.40;99.90
19829;DHT22;10075;50.924;4.396;2024-01-25T15:00:03;12.50;99.90
19829;DHT22;10075;50.924;4.396;2024-01-25T15:02:32;12.50;99.90
19829;DHT22;10075;50.924;4.396;2024-01-25T15:04:59;12.50;99.90
19829;DHT22;10075;50.924;4.396;2024-01-25T15:07:26;12.30;99.90
19829;DHT22;10075;50.924;4.396;2024-01-25T15:09:54;12.20;99.90
19829;DHT22;10075;50.924;4.396;2024-01-25T15:12:23;12.30;99.90
19829;DHT22;10075;50.924;4.396;2024-01-25T15:14:50;12.10;99.90
19829;DHT22;10075;50.924;4.396;2024-01-25T15:17:16;12.10;99.90
19829;DHT22;10075;50.924;4.396;2024-01-25T15:19:44;12.00;99.90
19829;DHT22;10075;50.924;4.396;2024-01-25T15:22:11;12.20;99.90
19829;DHT22;10075;50.924;4.396;2024-01-25T15:24:38;12.20;99.90
19829;DHT22;10075;50.924;4.396;2024-01-25T15:27:05;12.20;99.90
19829;DHT22;10075;50.924;4.396;2024-01-25T15:29:33;12.30;99.90
19829;DHT22;10075;50.924;4.396;2024-01-25T15:32:00;12.20;99.90
19829;DHT22;10075;50.924;4.396;2024-01-25T15:34:27;12.10;99.90
19829;DHT22;10075;50.924;4.396;2024-01-25T15:36:54;12.10;99.90
19829;DHT22;10075;50.924;4.396;2024-01-25T15:39:21;12.20;99.90
19829;DHT22;10075;50.924;4.396;2024-01-25T15:41:49;12.30;99.90